Time;durP1;ratioP1;P1;durP2;ratioP2;P2;SDS_P1;SDS_P2;PMS_P1;PMS_P2;Temp;Humidity;BMP_temperature;BMP_pressure;BME280_temperature;BME280_humidity;BME280_pressure;Samples;Min_cycle;Max_cycle;Signal;HPM_P1;HPM_P2
2022/05/06 00:01:16;;;;;;;;;;;;;;;;;;4421554;32;19937;-79
2022/05/06 00:03:42;;;;;;;;;;;;;;;;;;4421687;32;19971;-79
2022/05/06 00:06:07;;;;;;;;;;;;;;;;;;4421714;32;19933;-79
2022/05/06 00:08:32;;;;;;;;;;;;;;;;;;4421590;32;19933;-79
2022/05/06 00:10:59;;;;;;;;;;;;;;;;;;4420511;32;19941;-80
2022/05/06 00:13:25;;;;;;;;;;;;;;;;;;4421223;32;20000;-79
2022/05/06 00:15:50;;;;;;;;;;;;;;;;;;4423541;32;19941;-79
2022/05/06 00:18:15;;;;;;;;;;;;;;;;;;4422044;32;19944;-80
2022/05/06 00:20:41;;;;;;;;;;;;;;;;;;4422642;32;19937;-79
2022/05/06 00:23:07;;;;;;;;;;;;;;;;;;4429415;32;20008;-79
2022/05/06 00:25:32;;;;;;;;;;;;;;;;;;4433726;32;19980;-79
2022/05/06 00:27:57;;;;;;;;;;;;;;;;;;4422319;32;19943;-80
2022/05/06 00:30:22;;;;;;;;;;;;;;;;;;4422583;32;19969;-80
2022/05/06 00:32:47;;;;;;;;;;;;;;;;;;4422604;32;19970;-80
2022/05/06 00:35:13;;;;;;;;;;;;;;;;;;4422206;32;20352;-80
2022/05/06 00:37:38;;;;;;;;;;;;;;;;;;4422626;32;19980;-80
2022/05/06 00:40:03;;;;;;;;;;;;;;;;;;4424574;27;19980;-67
2022/05/06 00:42:28;;;;;;;;;;;;;;;;;;4420756;32;19974;-68
2022/05/06 00:44:53;;;;;;;;;;;;;;;;;;4420799;32;19948;-67
2022/05/06 00:47:19;;;;;;;;;;;;;;;;;;4422376;32;19944;-67
2022/05/06 00:49:44;;;;;;;;;;;;;;;;;;4422325;32;20275;-67
2022/05/06 00:52:10;;;;;;;;;;;;;;;;;;4422477;32;19960;-67
2022/05/06 00:54:37;;;;;;;;;;;;;;;;;;4421511;32;19945;-67
2022/05/06 00:57:02;;;;;;;;;;;;;;;;;;4421986;32;20259;-67
2022/05/06 00:59:27;;;;;;;;;;;;;;;;;;4421092;32;20302;-67
2022/05/06 01:01:52;;;;;;;;;;;;;;;;;;4422564;32;19975;-67
2022/05/06 01:04:17;;;;;;;;;;;;;;;;;;4421568;32;19987;-67
2022/05/06 01:06:42;;;;;;;;;;;;;;;;;;4417336;32;20381;-68
2022/05/06 01:09:07;;;;;;;;;;;;;;;;;;4408739;32;19933;-68
2022/05/06 01:11:33;;;;;;;;;;;;;;;;;;4406381;32;19971;-68
2022/05/06 01:13:58;;;;;;;;;;;;;;;;;;4407261;32;19956;-68
2022/05/06 01:16:24;;;;;;;;;;;;;;;;;;4413223;32;20024;-68
2022/05/06 01:18:51;;;;;;;;;;;;;;;;;;4420313;32;19937;-67
2022/05/06 01:21:16;;;;;;;;;;;;;;;;;;4419456;32;20270;-68
2022/05/06 01:23:41;;;;;;;;;;;;;;;;;;4422187;32;19933;-68
2022/05/06 01:26:06;;;;;;;;;;;;;;;;;;4422033;32;19949;-68
2022/05/06 01:28:31;;;;;;;;;;;;;;;;;;4424634;32;19933;-67
2022/05/06 01:31:01;;;;;;;;;;;;;;;;;;4422811;32;20347;-67
2022/05/06 01:33:26;;;;;;;;;;;;;;;;;;4424854;32;20011;-69
2022/05/06 01:35:51;;;;;;;;;;;;;;;;;;4423670;32;19933;-68
2022/05/06 01:38:17;;;;;;;;;;;;;;;;;;4423486;32;19997;-68
2022/05/06 01:40:42;;;;;;;;;;;;;;;;;;4424517;32;19932;-68
2022/05/06 01:43:07;;;;;;;;;;;;;;;;;;4421044;32;19970;-67
2022/05/06 01:45:32;;;;;;;;;;;;;;;;;;4408388;32;20280;-66
2022/05/06 01:47:57;;;;;;;;;;;;;;;;;;4409259;32;19934;-68
2022/05/06 01:50:22;;;;;;;;;;;;;;;;;;4409948;32;19956;-67
2022/05/06 01:52:47;;;;;;;;;;;;;;;;;;4409315;32;19938;-67
2022/05/06 01:55:14;;;;;;;;;;;;;;;;;;4408099;32;19963;-67
2022/05/06 01:57:39;;;;;;;;;;;;;;;;;;4408536;32;19949;-68
2022/05/06 02:00:05;;;;;;;;;;;;;;;;;;4409701;32;19971;-67
2022/05/06 02:02:30;;;;;;;;;;;;;;;;;;4406956;32;19949;-67
2022/05/06 02:07:39;;;;;;;;;;;;;;;;;;4424834;32;19962;-68
2022/05/06 02:10:04;;;;;;;;;;;;;;;;;;4424454;32;19984;-67
2022/05/06 02:12:29;;;;;;;;;;;;;;;;;;4422769;32;20043;-67
2022/05/06 02:14:54;;;;;;;;;;;;;;;;;;4409821;32;19973;-67
2022/05/06 02:17:19;;;;;;;;;;;;;;;;;;4409495;32;19937;-68
2022/05/06 02:19:44;;;;;;;;;;;;;;;;;;4407934;32;19972;-68
2022/05/06 02:22:09;;;;;;;;;;;;;;;;;;4408148;32;19934;-67
2022/05/06 02:24:34;;;;;;;;;;;;;;;;;;4408306;32;19988;-68
2022/05/06 02:26:59;;;;;;;;;;;;;;;;;;4407892;32;19948;-67
2022/05/06 02:29:24;;;;;;;;;;;;;;;;;;4409425;32;20006;-67
2022/05/06 02:34:34;;;;;;;;;;;;;;;;;;4408517;32;19993;-67
2022/05/06 02:36:59;;;;;;;;;;;;;;;;;;4408402;32;19937;-68
2022/05/06 02:39:25;;;;;;;;;;;;;;;;;;4418567;32;19984;-67
2022/05/06 02:41:51;;;;;;;;;;;;;;;;;;4423493;32;19988;-67
2022/05/06 02:44:17;;;;;;;;;;;;;;;;;;4424954;32;20274;-67
2022/05/06 02:46:42;;;;;;;;;;;;;;;;;;4424720;32;19945;-67
2022/05/06 02:49:08;;;;;;;;;;;;;;;;;;4422422;32;19943;-66
2022/05/06 02:51:33;;;;;;;;;;;;;;;;;;4424143;32;20105;-67
2022/05/06 02:53:58;;;;;;;;;;;;;;;;;;4424525;32;19955;-67
2022/05/06 02:56:23;;;;;;;;;;;;;;;;;;4414477;32;20064;-67
2022/05/06 02:58:48;;;;;;;;;;;;;;;;;;4407540;32;19933;-67
2022/05/06 03:01:13;;;;;;;;;;;;;;;;;;4408713;32;19948;-68
2022/05/06 03:03:38;;;;;;;;;;;;;;;;;;4405964;32;19944;-67
2022/05/06 03:06:03;;;;;;;;;;;;;;;;;;4407208;32;19952;-67
2022/05/06 03:08:28;;;;;;;;;;;;;;;;;;4420892;32;19933;-67
2022/05/06 03:10:53;;;;;;;;;;;;;;;;;;4423331;32;19934;-67
2022/05/06 03:13:19;;;;;;;;;;;;;;;;;;4421685;32;19933;-67
2022/05/06 03:15:45;;;;;;;;;;;;;;;;;;4423769;32;20184;-68
2022/05/06 03:18:10;;;;;;;;;;;;;;;;;;4422897;32;19933;-67
2022/05/06 03:20:38;;;;;;;;;;;;;;;;;;4408859;32;19948;-67
2022/05/06 03:23:03;;;;;;;;;;;;;;;;;;4407273;32;19944;-67
2022/05/06 03:25:28;;;;;;;;;;;;;;;;;;4408592;32;20289;-67
2022/05/06 03:28:00;;;;;;;;;;;;;;;;;;4406965;32;19937;-68
2022/05/06 03:30:25;;;;;;;;;;;;;;;;;;4408495;32;19942;-67
2022/05/06 03:32:50;;;;;;;;;;;;;;;;;;4415099;32;19971;-67
2022/05/06 03:35:15;;;;;;;;;;;;;;;;;;4420488;32;19937;-68
2022/05/06 03:37:40;;;;;;;;;;;;;;;;;;4421542;32;19941;-68
2022/05/06 03:40:05;;;;;;;;;;;;;;;;;;4420960;32;19933;-68
2022/05/06 03:42:30;;;;;;;;;;;;;;;;;;4423153;32;19933;-67
2022/05/06 03:44:55;;;;;;;;;;;;;;;;;;4423477;32;19933;-68
2022/05/06 03:47:20;;;;;;;;;;;;;;;;;;4423542;32;20266;-68
2022/05/06 03:51:20;;;;;;;;;;;;;;;;;;4423078;32;19993;-68
2022/05/06 03:52:31;;;;;;;;;;;;;;;;;;4421670;32;19932;-68
2022/05/06 03:54:56;;;;;;;;;;;;;;;;;;4420911;32;20307;-67
2022/05/06 03:57:21;;;;;;;;;;;;;;;;;;4422988;32;19937;-68
2022/05/06 03:59:46;;;;;;;;;;;;;;;;;;4408012;32;19942;-68
2022/05/06 04:02:11;;;;;;;;;;;;;;;;;;4407918;32;19952;-67
2022/05/06 04:04:36;;;;;;;;;;;;;;;;;;4415065;32;19937;-67
2022/05/06 04:07:02;;;;;;;;;;;;;;;;;;4423020;32;20299;-68
2022/05/06 04:09:27;;;;;;;;;;;;;;;;;;4421238;32;19933;-68
2022/05/06 04:11:52;;;;;;;;;;;;;;;;;;4421292;32;19971;-67
2022/05/06 04:14:17;;;;;;;;;;;;;;;;;;4422073;32;19971;-67
2022/05/06 04:16:42;;;;;;;;;;;;;;;;;;4420842;32;19933;-67
2022/05/06 04:19:07;;;;;;;;;;;;;;;;;;4422179;32;20205;-68
2022/05/06 04:24:16;;;;;;;;;;;;;;;;;;4422970;32;19962;-67
2022/05/06 04:26:41;;;;;;;;;;;;;;;;;;4417184;32;19937;-65
2022/05/06 04:29:06;;;;;;;;;;;;;;;;;;4406905;32;20303;-66
2022/05/06 04:31:32;;;;;;;;;;;;;;;;;;4407469;32;19941;-66
2022/05/06 04:33:57;;;;;;;;;;;;;;;;;;4407763;32;20236;-66
2022/05/06 04:36:22;;;;;;;;;;;;;;;;;;4407673;32;19934;-68
2022/05/06 04:38:47;;;;;;;;;;;;;;;;;;4406808;32;19956;-67
2022/05/06 04:41:13;;;;;;;;;;;;;;;;;;4407367;32;19944;-67
2022/05/06 04:43:38;;;;;;;;;;;;;;;;;;4406362;32;19967;-67
2022/05/06 04:46:03;;;;;;;;;;;;;;;;;;4405920;32;20023;-67
2022/05/06 04:48:29;;;;;;;;;;;;;;;;;;4406195;32;19996;-67
2022/05/06 04:50:54;;;;;;;;;;;;;;;;;;4404929;32;19969;-68
2022/05/06 04:53:19;;;;;;;;;;;;;;;;;;4405804;32;19949;-68
2022/05/06 04:55:46;;;;;;;;;;;;;;;;;;4405852;32;20397;-68
2022/05/06 04:58:11;;;;;;;;;;;;;;;;;;4409337;32;19945;-68
2022/05/06 05:00:36;;;;;;;;;;;;;;;;;;4420598;32;19932;-68
2022/05/06 05:03:01;;;;;;;;;;;;;;;;;;4419425;32;19976;-68
2022/05/06 05:05:27;;;;;;;;;;;;;;;;;;4422095;32;19933;-67
2022/05/06 05:07:53;;;;;;;;;;;;;;;;;;4419378;32;19941;-68
2022/05/06 05:10:18;;;;;;;;;;;;;;;;;;4422191;32;19945;-68
2022/05/06 05:12:43;;;;;;;;;;;;;;;;;;4420555;32;19936;-68
2022/05/06 05:15:08;;;;;;;;;;;;;;;;;;4422116;32;19943;-68
2022/05/06 05:17:33;;;;;;;;;;;;;;;;;;4422118;32;20290;-68
2022/05/06 05:19:58;;;;;;;;;;;;;;;;;;4412822;32;19960;-68
2022/05/06 05:22:23;;;;;;;;;;;;;;;;;;4418662;32;20281;-68
2022/05/06 05:24:48;;;;;;;;;;;;;;;;;;4410793;32;20278;-69
2022/05/06 05:27:14;;;;;;;;;;;;;;;;;;4409862;32;20006;-68
2022/05/06 05:29:39;;;;;;;;;;;;;;;;;;4406370;32;19933;-69
2022/05/06 05:32:04;;;;;;;;;;;;;;;;;;4405099;32;19947;-69
2022/05/06 05:34:29;;;;;;;;;;;;;;;;;;4404627;32;19944;-68
2022/05/06 05:36:54;;;;;;;;;;;;;;;;;;4404528;32;19991;-68
2022/05/06 05:39:19;;;;;;;;;;;;;;;;;;4404925;32;19960;-68
2022/05/06 05:41:44;;;;;;;;;;;;;;;;;;4405128;32;20067;-68
2022/05/06 05:49:37;;;;;;;;;;;;;;;;;;4421703;32;19955;-68
2022/05/06 05:52:02;;;;;;;;;;;;;;;;;;4420401;32;19945;-67
2022/05/06 05:54:28;;;;;;;;;;;;;;;;;;4411802;32;19957;-68
2022/05/06 05:56:54;;;;;;;;;;;;;;;;;;4403092;32;20282;-68
2022/05/06 05:59:19;;;;;;;;;;;;;;;;;;4404766;32;19934;-68
2022/05/06 06:01:44;;;;;;;;;;;;;;;;;;4405031;32;19955;-68
2022/05/06 06:04:09;;;;;;;;;;;;;;;;;;4404319;32;19933;-68
2022/05/06 06:06:34;;;;;;;;;;;;;;;;;;4405718;32;19960;-68
2022/05/06 06:08:59;;;;;;;;;;;;;;;;;;4403266;32;19937;-68
2022/05/06 06:11:24;;;;;;;;;;;;;;;;;;4406193;32;19984;-68
2022/05/06 06:13:49;;;;;;;;;;;;;;;;;;4416808;32;19943;-67
2022/05/06 06:16:14;;;;;;;;;;;;;;;;;;4431260;32;19972;-67
2022/05/06 06:18:39;;;;;;;;;;;;;;;;;;4411661;32;20311;-67
2022/05/06 06:21:05;;;;;;;;;;;;;;;;;;4423155;32;19987;-69
2022/05/06 06:23:30;;;;;;;;;;;;;;;;;;4420573;32;19944;-67
2022/05/06 06:25:55;;;;;;;;;;;;;;;;;;4411685;32;19934;-68
2022/05/06 06:28:21;;;;;;;;;;;;;;;;;;4406874;32;20260;-68
2022/05/06 06:30:46;;;;;;;;;;;;;;;;;;4409034;32;19946;-68
2022/05/06 06:33:11;;;;;;;;;;;;;;;;;;4406807;32;19941;-68
2022/05/06 06:35:36;;;;;;;;;;;;;;;;;;4406993;32;19937;-68
2022/05/06 06:38:01;;;;;;;;;;;;;;;;;;4411206;32;20313;-68
2022/05/06 06:40:26;;;;;;;;;;;;;;;;;;4420612;32;19952;-67
2022/05/06 06:42:51;;;;;;;;;;;;;;;;;;4421951;32;19948;-67
2022/05/06 06:45:17;;;;;;;;;;;;;;;;;;4421601;32;19957;-70
2022/05/06 06:47:43;;;;;;;;;;;;;;;;;;4422689;32;19937;-67
2022/05/06 06:50:08;;;;;;;;;;;;;;;;;;4422084;32;19941;-68
2022/05/06 06:52:33;;;;;;;;;;;;;;;;;;4423659;32;19957;-67
2022/05/06 06:54:59;;;;;;;;;;;;;;;;;;4419074;32;19938;-67
2022/05/06 06:57:26;;;;;;;;;;;;;;;;;;4408185;32;19984;-69
2022/05/06 06:59:51;;;;;;;;;;;;;;;;;;4406480;32;19933;-68
2022/05/06 07:02:16;;;;;;;;;;;;;;;;;;4406819;32;19948;-69
2022/05/06 07:04:41;;;;;;;;;;;;;;;;;;4408239;32;19934;-68
2022/05/06 07:12:34;;;;;;;;;;;;;;;;;;4406900;32;19971;-68
2022/05/06 07:14:59;;;;;;;;;;;;;;;;;;4406825;32;19938;-67
2022/05/06 07:17:24;;;;;;;;;;;;;;;;;;4406352;32;20251;-68
2022/05/06 07:19:50;;;;;;;;;;;;;;;;;;4406394;32;19969;-68
2022/05/06 07:22:15;;;;;;;;;;;;;;;;;;4407006;32;19949;-68
2022/05/06 07:24:40;;;;;;;;;;;;;;;;;;4407426;32;19945;-68
2022/05/06 07:27:07;;;;;;;;;;;;;;;;;;4422571;32;20308;-67
2022/05/06 07:29:32;;;;;;;;;;;;;;;;;;4421318;32;19950;-68
2022/05/06 07:31:57;;;;;;;;;;;;;;;;;;4420778;32;19941;-68
2022/05/06 07:34:22;;;;;;;;;;;;;;;;;;4422941;32;19968;-68
2022/05/06 07:36:47;;;;;;;;;;;;;;;;;;4421050;32;19986;-68
2022/05/06 07:39:13;;;;;;;;;;;;;;;;;;4422046;32;20384;-69
2022/05/06 07:41:38;;;;;;;;;;;;;;;;;;4422242;32;19994;-68
2022/05/06 07:44:03;;;;;;;;;;;;;;;;;;4421208;32;19976;-68
2022/05/06 07:46:28;;;;;;;;;;;;;;;;;;4421876;32;20285;-68
2022/05/06 07:48:53;;;;;;;;;;;;;;;;;;4419519;32;19937;-68
2022/05/06 07:51:18;;;;;;;;;;;;;;;;;;4422821;32;19937;-68
2022/05/06 07:53:43;;;;;;;;;;;;;;;;;;4421476;32;19989;-68
2022/05/06 07:56:08;;;;;;;;;;;;;;;;;;4411022;32;20052;-69
2022/05/06 07:58:34;;;;;;;;;;;;;;;;;;4407384;32;20370;-68
2022/05/06 08:00:59;;;;;;;;;;;;;;;;;;4405657;32;20325;-68
2022/05/06 08:06:08;;;;;;;;;;;;;;;;;;4407235;32;20274;-67
2022/05/06 08:08:33;;;;;;;;;;;;;;;;;;4407555;32;19938;-67
2022/05/06 08:10:58;;;;;;;;;;;;;;;;;;4405885;32;20338;-67
2022/05/06 08:13:23;;;;;;;;;;;;;;;;;;4404838;32;19937;-68
2022/05/06 08:15:49;;;;;;;;;;;;;;;;;;4404495;32;19941;-67
2022/05/06 08:18:14;;;;;;;;;;;;;;;;;;4405731;32;19970;-67
2022/05/06 08:20:40;;;;;;;;;;;;;;;;;;4407471;32;19933;-68
2022/05/06 08:23:05;;;;;;;;;;;;;;;;;;4404962;32;19947;-67
2022/05/06 08:25:30;;;;;;;;;;;;;;;;;;4414359;32;19962;-68
2022/05/06 08:27:55;;;;;;;;;;;;;;;;;;4419681;32;20020;-67
2022/05/06 08:30:20;;;;;;;;;;;;;;;;;;4420569;32;19937;-69
2022/05/06 08:32:45;;;;;;;;;;;;;;;;;;4421110;32;19991;-69
2022/05/06 08:35:10;;;;;;;;;;;;;;;;;;4421485;32;20324;-68
2022/05/06 08:37:35;;;;;;;;;;;;;;;;;;4419847;32;19974;-67
2022/05/06 08:40:00;;;;;;;;;;;;;;;;;;4421705;32;19944;-68
2022/05/06 08:42:25;;;;;;;;;;;;;;;;;;4420581;32;20060;-68
2022/05/06 08:53:03;;;;;;;;;;;;;;;;;;4421538;32;20364;-68
2022/05/06 08:55:28;;;;;;;;;;;;;;;;;;4414164;32;19942;-68
2022/05/06 08:57:53;;;;;;;;;;;;;;;;;;4405501;32;19942;-66
2022/05/06 09:00:18;;;;;;;;;;;;;;;;;;4407000;32;19991;-67
2022/05/06 09:02:43;;;;;;;;;;;;;;;;;;4405445;32;19955;-68
2022/05/06 09:05:08;;;;;;;;;;;;;;;;;;4405479;32;19944;-67
2022/05/06 09:07:33;;;;;;;;;;;;;;;;;;4406486;32;19933;-67
2022/05/06 09:09:58;;;;;;;;;;;;;;;;;;4405397;32;19971;-67
2022/05/06 09:12:42;;;;;;;;;;;;;;;;;;4405017;32;19937;-67
2022/05/06 09:17:51;;;;;;;;;;;;;;;;;;4404958;32;19971;-68
2022/05/06 09:20:16;;;;;;;;;;;;;;;;;;4406478;32;19942;-67
2022/05/06 09:22:41;;;;;;;;;;;;;;;;;;4406707;32;19949;-68
2022/05/06 09:25:06;;;;;;;;;;;;;;;;;;4412856;32;19956;-68
2022/05/06 09:27:31;;;;;;;;;;;;;;;;;;4420789;32;19953;-67
2022/05/06 09:29:57;;;;;;;;;;;;;;;;;;4420037;32;19956;-68
2022/05/06 09:32:22;;;;;;;;;;;;;;;;;;4419973;32;19979;-68
2022/05/06 09:34:47;;;;;;;;;;;;;;;;;;4419397;32;19934;-67
2022/05/06 09:37:12;;;;;;;;;;;;;;;;;;4420059;32;19994;-68
2022/05/06 09:39:40;;;;;;;;;;;;;;;;;;4417818;32;19956;-68
2022/05/06 09:42:05;;;;;;;;;;;;;;;;;;4419839;32;19945;-68
2022/05/06 09:44:31;;;;;;;;;;;;;;;;;;4419907;32;19955;-68
2022/05/06 09:46:56;;;;;;;;;;;;;;;;;;4422164;32;20253;-67
2022/05/06 09:49:21;;;;;;;;;;;;;;;;;;4422206;32;20316;-67
2022/05/06 09:51:47;;;;;;;;;;;;;;;;;;4422955;32;19985;-67
2022/05/06 09:54:13;;;;;;;;;;;;;;;;;;4421897;32;19995;-69
2022/05/06 09:56:38;;;;;;;;;;;;;;;;;;4422543;32;19985;-67
2022/05/06 09:59:03;;;;;;;;;;;;;;;;;;4422524;32;19932;-68
2022/05/06 10:01:28;;;;;;;;;;;;;;;;;;4423577;32;19943;-68
2022/05/06 10:03:53;;;;;;;;;;;;;;;;;;4422109;32;19968;-67
2022/05/06 10:06:18;;;;;;;;;;;;;;;;;;4423253;32;20314;-68
2022/05/06 10:08:43;;;;;;;;;;;;;;;;;;4422792;32;19972;-68
2022/05/06 10:11:12;;;;;;;;;;;;;;;;;;4423539;32;20032;-68
2022/05/06 10:13:38;;;;;;;;;;;;;;;;;;4424027;32;19941;-67
2022/05/06 10:16:03;;;;;;;;;;;;;;;;;;4421245;32;20363;-67
2022/05/06 10:18:28;;;;;;;;;;;;;;;;;;4422264;32;20004;-67
2022/05/06 10:20:54;;;;;;;;;;;;;;;;;;4424130;32;19933;-69
2022/05/06 10:23:19;;;;;;;;;;;;;;;;;;4423868;32;19933;-68
2022/05/06 10:25:45;;;;;;;;;;;;;;;;;;4412735;32;19977;-67
2022/05/06 10:33:38;;;;;;;;;;;;;;;;;;4407247;32;20294;-70
2022/05/06 10:36:03;;;;;;;;;;;;;;;;;;4417611;32;20311;-68
2022/05/06 10:38:28;;;;;;;;;;;;;;;;;;4407621;32;20354;-68
2022/05/06 10:40:56;;;;;;;;;;;;;;;;;;4407544;32;19998;-69
2022/05/06 10:43:21;;;;;;;;;;;;;;;;;;4423609;32;19984;-68
2022/05/06 10:45:46;;;;;;;;;;;;;;;;;;4424851;32;19948;-69
2022/05/06 10:48:11;;;;;;;;;;;;;;;;;;4424267;32;19937;-68
2022/05/06 10:50:37;;;;;;;;;;;;;;;;;;4412054;32;19990;-68
2022/05/06 10:53:04;;;;;;;;;;;;;;;;;;4407922;32;20328;-67
2022/05/06 10:55:30;;;;;;;;;;;;;;;;;;4406896;32;20267;-69
2022/05/06 10:57:55;;;;;;;;;;;;;;;;;;4404610;32;20329;-69
2022/05/06 11:00:20;;;;;;;;;;;;;;;;;;4407825;32;19933;-69
2022/05/06 11:04:29;;;;;;;16.98;13.38;;;;;;;;;;4495587;31;20066;-68
2022/05/06 11:07:09;;;;;;;17.00;13.10;;;;;;;;;;4476505;32;20028;-67
2022/05/06 11:09:35;;;;;;;19.67;13.57;;;;;;;;;;4462552;32;20132;-67
2022/05/06 11:12:00;;;;;;;18.27;11.90;;;;;;;;;;4464120;32;20060;-67
2022/05/06 11:14:25;;;;;;;16.40;13.18;;;;;;;;;;4464436;32;20029;-68
2022/05/06 11:16:51;;;;;;;16.45;12.57;;;;;;;;;;4465227;32;20029;-68
2022/05/06 11:19:32;;;;;;;22.77;14.60;;;;;;;;;;4464529;32;20029;-67
2022/05/06 11:22:07;;;;;;;19.42;12.90;;;;;;;;;;4465013;32;20052;-68
2022/05/06 11:24:32;;;;;;;16.40;12.23;;;;;;;;;;4479636;32;20036;-68
2022/05/06 11:27:10;;;;;;;16.48;12.63;;;;;;;;;;4481108;32;20382;-68
2022/05/06 11:30:02;;;;;;;16.92;12.82;;;;;;;;;;4480677;32;20403;-68
2022/05/06 11:32:28;;;;;;;17.92;13.25;;;;;;;;;;4475522;32;20048;-68
2022/05/06 11:35:09;;;;;;;13.68;12.13;;;;;;;;;;4480950;32;20440;-68
2022/05/06 11:37:35;;;;;;;15.05;12.32;;;;;;;;;;4480961;32;20028;-68
2022/05/06 11:40:32;;;;;;;14.70;11.90;;;;;;;;;;4479245;32;20466;-68
2022/05/06 11:42:57;;;;;;;16.73;12.77;;;;;;;;;;4462482;32;20045;-68
2022/05/06 11:48:08;;;;;;;15.95;12.18;;;;;;;;;;4464192;32;20560;-66
2022/05/06 11:50:38;;;;;;;14.23;12.57;;;;;;;;;;4464093;32;20067;-66
2022/05/06 11:53:05;;;;;;;16.85;10.80;;;;;;;;;;4463096;32;20029;-66
2022/05/06 11:55:30;;;;;;;14.95;10.20;;;;;;;;;;4463120;32;20030;-67
2022/05/06 11:57:56;;;;;;;13.00;10.75;;;;;;;;;;4463447;32;20078;-66
2022/05/06 12:00:22;;;;;;;11.85;10.10;;;;;;;;;;4463334;32;20097;-66
2022/05/06 12:02:51;;;;;;;17.30;11.27;;;;;;;;;;4462899;32;20049;-66
2022/05/06 12:05:16;;;;;;;18.60;12.88;;;;;;;;;;4464715;32;20064;-66
2022/05/06 12:07:45;;;;;;;14.13;12.20;;;;;;;;;;4464944;32;20125;-67
2022/05/06 12:10:11;;;;;;;12.30;10.80;;;;;;;;;;4464437;32;20037;-67
2022/05/06 12:13:10;;;;;;;13.82;10.73;;;;;;;;;;4450500;32;20344;-67
2022/05/06 12:15:39;;;;;;;14.93;11.20;;;;;;;;;;4453445;32;20413;-66
2022/05/06 12:18:07;;;;;;;13.05;9.32;;;;;;;;;;4454362;32;20414;-67
2022/05/06 12:20:34;;;;;;;11.63;9.70;;;;;;;;;;4454118;32;20089;-67
2022/05/06 12:23:00;;;;;;;12.55;10.82;;;;;;;;;;4449781;32;20036;-67
2022/05/06 12:25:25;;;;;;;10.60;9.50;;;;;;;;;;4453208;32;20045;-69
2022/05/06 12:28:09;;;;;;;12.52;11.02;;;;;;;;;;4452410;32;20124;-67
2022/05/06 12:30:35;;;;;;;14.63;11.38;;;;;;;;;;4453402;32;20055;-67
2022/05/06 12:33:05;;;;;;;12.07;10.35;;;;;;;;;;4453136;32;20037;-67
2022/05/06 12:35:30;;;;;;;14.90;10.18;;;;;;;;;;4452195;32;20083;-67
2022/05/06 12:37:56;;;;;;;17.23;12.70;;;;;;;;;;4453725;32;20093;-68
2022/05/06 12:40:31;;;;;;;14.65;10.50;;;;;;;;;;4452877;32;20185;-67
2022/05/06 12:43:03;;;;;;;12.02;10.57;;;;;;;;;;4451628;32;20033;-68
2022/05/06 12:45:28;;;;;;;12.85;10.65;;;;;;;;;;4453711;32;20441;-67
2022/05/06 12:50:38;;;;;;;13.75;10.38;;;;;;;;;;4453195;32;20183;-67
2022/05/06 12:53:03;;;;;;;13.32;10.82;;;;;;;;;;4437815;32;20034;-67
2022/05/06 12:55:29;;;;;;;13.60;10.27;;;;;;;;;;4451768;32;20320;-67
2022/05/06 12:57:55;;;;;;;14.23;9.90;;;;;;;;;;4438542;32;20038;-67
2022/05/06 13:00:21;;;;;;;10.05;9.00;;;;;;;;;;4439373;32;20133;-68
2022/05/06 13:02:46;;;;;;;13.75;10.23;;;;;;;;;;4452929;32;20148;-67
2022/05/06 13:05:11;;;;;;;11.68;10.50;;;;;;;;;;4452050;32;20056;-67
2022/05/06 13:07:37;;;;;;;11.82;9.85;;;;;;;;;;4452721;32;20080;-68
2022/05/06 13:10:02;;;;;;;13.05;11.52;;;;;;;;;;4452217;32;20067;-67
2022/05/06 13:12:27;;;;;;;22.50;16.45;;;;;;;;;;4439136;32;20030;-68
2022/05/06 13:14:52;;;;;;;12.82;9.18;;;;;;;;;;4452376;32;20049;-67
2022/05/06 13:17:17;;;;;;;17.58;9.77;;;;;;;;;;4451979;32;20052;-67
2022/05/06 13:19:42;;;;;;;11.35;10.02;;;;;;;;;;4451910;32;20077;-67
2022/05/06 13:22:07;;;;;;;15.50;9.95;;;;;;;;;;4453702;32;20466;-67
2022/05/06 13:24:33;;;;;;;11.53;10.37;;;;;;;;;;4451697;32;20403;-68
2022/05/06 13:26:58;;;;;;;11.52;9.43;;;;;;;;;;4451622;32;20124;-67
2022/05/06 13:29:23;;;;;;;14.35;10.10;;;;;;;;;;4439128;32;20419;-67
2022/05/06 13:31:49;;;;;;;14.80;9.73;;;;;;;;;;4452722;32;20430;-68
2022/05/06 13:34:14;;;;;;;11.32;9.27;;;;;;;;;;4451772;32;20147;-67
2022/05/06 13:36:39;;;;;;;12.90;9.65;;;;;;;;;;4451929;32;20066;-67
2022/05/06 13:39:04;;;;;;;12.27;8.68;;;;;;;;;;4452897;32;20081;-68
2022/05/06 13:41:29;;;;;;;13.57;8.85;;;;;;;;;;4451184;32;20109;-68
2022/05/06 13:43:55;;;;;;;13.27;8.80;;;;;;;;;;4452337;32;20382;-68
2022/05/06 13:46:20;;;;;;;12.25;8.80;;;;;;;;;;4451259;32;20025;-68
2022/05/06 13:48:45;;;;;;;14.02;8.98;;;;;;;;;;4451961;32;20089;-68
2022/05/06 13:51:10;;;;;;;10.32;9.15;;;;;;;;;;4451955;32;20069;-68
2022/05/06 13:53:35;;;;;;;12.85;9.73;;;;;;;;;;4451390;32;20045;-68
2022/05/06 13:59:04;;;;;;;14.77;10.45;;;;;;;;;;4452732;32;20168;-66
2022/05/06 14:01:29;;;;;;;10.05;8.68;;;;;;;;;;4452246;32;20056;-67
2022/05/06 14:03:54;;;;;;;13.65;9.25;;;;;;;;;;4436476;32;20041;-67
2022/05/06 14:06:19;;;;;;;11.05;8.65;;;;;;;;;;4452474;32;20057;-68
2022/05/06 14:08:44;;;;;;;27.85;10.18;;;;;;;;;;4451855;32;20021;-68
2022/05/06 14:11:10;;;;;;;10.77;9.52;;;;;;;;;;4452392;32;20585;-68
2022/05/06 14:13:35;;;;;;;13.50;9.27;;;;;;;;;;4452713;32;20068;-68
2022/05/06 14:16:01;;;;;;;13.00;10.73;;;;;;;;;;4451935;32;20114;-69
2022/05/06 14:18:27;;;;;;;14.18;10.20;;;;;;;;;;4450919;32;20029;-69
2022/05/06 14:20:52;;;;;;;12.57;10.73;;;;;;;;;;4450995;32;20052;-68
2022/05/06 14:23:17;;;;;;;10.68;9.35;;;;;;;;;;4438382;32;20453;-67
2022/05/06 14:25:44;;;;;;;10.05;8.98;;;;;;;;;;4451793;32;20427;-68
2022/05/06 14:28:09;;;;;;;14.65;9.80;;;;;;;;;;4451618;32;20030;-68
2022/05/06 14:30:34;;;;;;;11.63;10.43;;;;;;;;;;4452911;32;20032;-69
2022/05/06 14:32:59;;;;;;;14.70;10.35;;;;;;;;;;4451371;32;20374;-68
2022/05/06 14:35:25;;;;;;;10.27;9.20;;;;;;;;;;4450355;32;20127;-68
2022/05/06 14:37:53;;;;;;;11.63;10.35;;;;;;;;;;4438201;32;20120;-68
2022/05/06 14:40:19;;;;;;;11.75;9.85;;;;;;;;;;4452326;32;20033;-68
2022/05/06 14:42:44;;;;;;;11.18;8.93;;;;;;;;;;4452565;32;20142;-67
2022/05/06 14:45:10;;;;;;;10.02;8.85;;;;;;;;;;4452238;32;20055;-68
2022/05/06 14:47:36;;;;;;;11.63;9.63;;;;;;;;;;4450676;32;20064;-68
2022/05/06 14:50:01;;;;;;;11.73;7.90;;;;;;;;;;4450968;32;20060;-68
2022/05/06 14:52:26;;;;;;;9.98;8.55;;;;;;;;;;4450965;32;20072;-68
2022/05/06 14:54:54;;;;;;;10.43;8.73;;;;;;;;;;4451013;32;20044;-68
2022/05/06 14:57:19;;;;;;;15.18;8.10;;;;;;;;;;4451665;32;20116;-68
2022/05/06 14:59:44;;;;;;;13.10;7.87;;;;;;;;;;4452006;32;20068;-68
2022/05/06 15:02:09;;;;;;;9.55;7.47;;;;;;;;;;4451296;32;20120;-67
2022/05/06 15:04:34;;;;;;;10.77;7.15;;;;;;;;;;4452234;32;20141;-67
2022/05/06 15:07:00;;;;;;;12.85;7.32;;;;;;;;;;4438001;32;20075;-68
2022/05/06 15:09:25;;;;;;;8.65;6.90;;;;;;;;;;4450608;32;20181;-67
2022/05/06 15:11:50;;;;;;;9.10;6.62;;;;;;;;;;4450890;32;20052;-68
2022/05/06 15:14:15;;;;;;;11.23;6.90;;;;;;;;;;4451321;32;20022;-67
2022/05/06 15:16:40;;;;;;;10.40;6.90;;;;;;;;;;4437532;32;20114;-67
2022/05/06 15:19:24;;;;;;;9.07;6.25;;;;;;;;;;4436162;32;20191;-66
2022/05/06 15:21:50;;;;;;;6.68;5.85;;;;;;;;;;4452366;32;20110;-66
2022/05/06 15:24:15;;;;;;;11.05;6.90;;;;;;;;;;4437136;32;20025;-68
2022/05/06 15:26:40;;;;;;;8.63;7.03;;;;;;;;;;4452238;32;20060;-67
2022/05/06 15:29:05;;;;;;;7.18;5.50;;;;;;;;;;4451160;32;20029;-67
2022/05/06 15:31:31;;;;;;;10.23;5.63;;;;;;;;;;4452730;32;20528;-67
2022/05/06 15:33:56;;;;;;;13.38;6.32;;;;;;;;;;4450598;32;20154;-67
2022/05/06 15:36:21;;;;;;;9.30;6.18;;;;;;;;;;4449577;32;20048;-67
2022/05/06 15:38:46;;;;;;;9.07;6.15;;;;;;;;;;4450114;32;20051;-67
2022/05/06 15:41:11;;;;;;;8.15;6.25;;;;;;;;;;4450157;32;20084;-68
2022/05/06 15:43:38;;;;;;;7.37;5.27;;;;;;;;;;4450107;32;20063;-68
2022/05/06 15:46:03;;;;;;;10.38;5.82;;;;;;;;;;4451487;32;20136;-67
2022/05/06 15:48:28;;;;;;;8.30;5.87;;;;;;;;;;4451800;32;20029;-67
2022/05/06 15:50:53;;;;;;;7.13;5.00;;;;;;;;;;4439806;32;20029;-67
2022/05/06 15:53:18;;;;;;;10.90;5.07;;;;;;;;;;4440067;32;20132;-67
2022/05/06 15:55:44;;;;;;;6.32;4.45;;;;;;;;;;4453911;32;20120;-67
2022/05/06 15:58:09;;;;;;;6.50;4.15;;;;;;;;;;4438439;32;20029;-69
2022/05/06 16:00:34;;;;;;;10.57;5.30;;;;;;;;;;4453780;32;20136;-67
2022/05/06 16:02:59;;;;;;;12.50;5.80;;;;;;;;;;4453188;32;20399;-68
2022/05/06 16:05:24;;;;;;;10.15;4.95;;;;;;;;;;4453677;32;20155;-68
2022/05/06 16:07:50;;;;;;;8.93;4.60;;;;;;;;;;4453372;32;20026;-68
2022/05/06 16:10:15;;;;;;;7.18;4.78;;;;;;;;;;4453037;32;20097;-68
2022/05/06 16:12:41;;;;;;;6.40;3.73;;;;;;;;;;4452380;32;20047;-69
2022/05/06 16:15:22;;;;;;;8.77;4.28;;;;;;;;;;4453113;32;20208;-68
2022/05/06 16:17:48;;;;;;;6.43;4.87;;;;;;;;;;4454634;32;20096;-67
2022/05/06 16:20:13;;;;;;;9.88;4.65;;;;;;;;;;4454292;32;20029;-68
2022/05/06 16:22:40;;;;;;;9.07;4.00;;;;;;;;;;4453301;32;20082;-68
2022/05/06 16:25:07;;;;;;;10.23;4.93;;;;;;;;;;4454385;32;20097;-68
2022/05/06 16:27:32;;;;;;;6.80;4.45;;;;;;;;;;4453872;32;20504;-68
2022/05/06 16:29:58;;;;;;;5.47;4.40;;;;;;;;;;4454095;32;20097;-68
2022/05/06 16:32:23;;;;;;;7.15;4.12;;;;;;;;;;4438730;32;20084;-68
2022/05/06 16:37:32;;;;;;;11.43;4.97;;;;;;;;;;4454492;32;20207;-68